Parisot

FR-0978 · Tarn, Occitanie, Francja

Historia METAR FR-0978 · Parisot

Poniżej widzisz METAR-y z ostatnich kilku dni. Wybierz rok, aby przeglądać starsze METAR-y, począwszy od roku 2007.

20 czerwca 2024

Czas Kod Pogoda Temp. Widoczność Sufit Wiatr METAR/SPECI
16:30
L
17 °C 900 m 700 ft 250° 250° 8 kt METAR LFBO 201430Z AUTO 25008KT 180V320 1000 0900 R14R/1200U R32L/1300N R14L/1100U R32R/1400D +RA BCFG VCTS BKN007/// BKN012/// BKN020/// ///CB 17/16 Q1018 TEMPO 4000 RA
16:00
I
17 °C 2,8 km 2.500 ft 350° 350° 8 kt METAR LFBO 201400Z AUTO 35008KT 2800 RA BR FEW014/// BKN025/// BKN036/// //////CB 17/16 Q1016 TEMPO 4000 RA BKN009 FEW040CB BECMG 28010KT
15:30
M
18 °C 5 km 4.200 ft 330° 330° 11 kt METAR LFBO 201330Z AUTO 33011KT 5000 -RA BR VCTS SCT020/// SCT025/// OVC042/// ///CB 18/16 Q1016 TEMPO RA BKN009 FEW040CB
15:00
M
19 °C 10 km+ 1.900 ft 340° 340° 11 kt METAR LFBO 201300Z AUTO 34011KT 9999 BKN019/// OVC043/// ///CB 19/15 Q1017 TEMPO 4000 RA BKN009 FEW040CB BECMG 28010KT
14:30
M
20 °C 10 km+ 1.600 ft 340° 340° 9 kt METAR LFBO 201230Z AUTO 34009KT 300V010 9999 BKN016 OVC044 20/15 Q1017 TEMPO 4000 RA BKN009 FEW040CB
14:00
M
20 °C 10 km+ 1.400 ft 330° 330° 7 kt METAR LFBO 201200Z AUTO 33007KT 310V010 9999 BKN014 BKN039 BKN066 20/16 Q1017 TEMPO 4000 RA BKN009 FEW040CB
13:30
M
19 °C 10 km+ 1.200 ft 300° 300° 5 kt METAR LFBO 201130Z AUTO 30005KT 260V340 9999 BKN012 OVC036 19/16 Q1017 TEMPO 4000 RA BECMG FEW010 BKN020 FEW040CB
13:00
M
18 °C 10 km+ 1.300 ft 320° 320° 4 kt METAR LFBO 201100Z AUTO 32004KT 250V020 9999 BKN013 OVC031 18/15 Q1017 TEMPO 4000 RA BECMG FEW010 BKN020 FEW040CB
12:30
M
19 °C 10 km+ 1.200 ft 300° 300° 7 kt METAR LFBO 201030Z AUTO 30007KT 260V330 9999 BKN012 OVC029 19/17 Q1017 TEMPO 4000 RA BECMG FEW010 BKN020 FEW040CB
12:00
I
17 °C 8 km 700 ft 290° 290° 8 kt METAR LFBO 201000Z AUTO 29008KT 260V320 8000 BKN007 BKN013 BKN019 17/16 Q1017 TEMPO 3000 RA BECMG FEW010 BKN020 FEW040CB
11:30
I
17 °C 6 km 800 ft 270° 270° 10 kt METAR LFBO 200930Z AUTO 27010KT 6000 -RADZ BKN008/// OVC016/// ///TCU 17/16 Q1017 TEMPO 3000 RA BECMG FEW010 BKN020 FEW040CB
11:00
I
17 °C 10 km+ 900 ft 270° 270° 8 kt METAR LFBO 200900Z AUTO 27008KT 9999 BKN009 OVC013 17/16 Q1017 BECMG FEW010 BKN020 FEW040CB
10:30
I
17 °C 10 km+ 800 ft 270° 270° 7 kt METAR LFBO 200830Z AUTO 27007KT 9999 OVC008 17/16 Q1017 BECMG FEW010 BKN020 FEW040CB
10:00
I
17 °C 10 km+ 700 ft 290° 290° 7 kt METAR LFBO 200800Z AUTO 29007KT 260V320 9999 BKN007 OVC017 17/16 Q1016 TEMPO 3000 RA BECMG FEW010 BKN020 FEW040CB
09:30
M
17 °C 10 km+ 1.600 ft 290° 290° 11 kt METAR LFBO 200730Z AUTO 29011KT 9999 FEW009/// OVC016/// ///CB 17/16 Q1016 TEMPO 3000 RA OVC008
09:00
M
16 °C 10 km+ 1.400 ft 260° 260° 9 kt METAR LFBO 200700Z AUTO 26009KT 9999 -DZ SCT008/// OVC014/// ///CB 16/16 Q1015 TEMPO 3000 RA OVC008
08:30
I
17 °C 10 km+ 800 ft 240° 240° 6 kt METAR LFBO 200630Z AUTO 24006KT 9999 -DZ OVC008/// ///CB 17/16 Q1015 TEMPO 3000 RA
08:00
I
16 °C 10 km+ 700 ft 250° 250° 4 kt METAR LFBO 200600Z AUTO 25004KT 220V280 9999 OVC007/// //////CB 16/15 Q1015 TEMPO 3000 RA
07:30
I
17 °C 10 km+ 700 ft 260° 260° 5 kt METAR LFBO 200530Z AUTO 26005KT 9999 OVC007/// ///CB 17/16 Q1015 BECMG OVC012
07:00
I
17 °C 10 km+ 700 ft 300° 300° 4 kt METAR LFBO 200500Z AUTO 30004KT 260V320 9999 OVC007/// ///CB 17/16 Q1015 BECMG OVC012
06:30
I
17 °C 10 km+ 800 ft 300° 300° 6 kt METAR LFBO 200430Z AUTO 30006KT 9999 BKN008/// BKN012/// BKN017/// ///CB 17/16 Q1015 BECMG OVC012
06:00
M
17 °C 10 km+ 1.000 ft 300° 300° 7 kt METAR LFBO 200400Z AUTO 30007KT 9999 BKN010/// BKN016/// OVC058/// //////TCU 17/16 Q1016 TEMPO 3000 SHRA BKN008 OVC040 FEW060CB
05:30
M
17 °C 10 km+ 1.400 ft 290° 290° 6 kt METAR LFBO 200330Z AUTO 29006KT 9999 FEW007/// OVC014/// //////TCU 17/16 Q1016 TEMPO 3000 SHRA BKN008 OVC040 FEW060CB
05:00
M
18 °C 10 km+ 1.500 ft 290° 290° 9 kt METAR LFBO 200300Z AUTO 29009KT 9999 FEW009/// OVC015/// //////TCU 18/17 Q1016 TEMPO 3000 SHRA BKN008 OVC040 FEW060CB
04:30
M
18 °C 10 km+ 1.200 ft 280° 280° 8 kt METAR LFBO 200230Z AUTO 28008KT 9999 FEW007 BKN012 BKN017 18/17 Q1015 TEMPO 3000 SHRA BKN008 OVC040 FEW060CB
04:00
M
18 °C 10 km+ 2.400 ft 280° 280° 8 kt METAR LFBO 200200Z AUTO 28008KT 9999 BKN024 OVC033 18/17 Q1016 TEMPO 3000 SHRA BKN008 OVC040 FEW060CB
03:30
M
18 °C 10 km+ 1.900 ft 280° 280° 9 kt METAR LFBO 200130Z AUTO 28009KT 9999 OVC019 18/17 Q1016 TEMPO 3000 SHRA BKN008 OVC040 FEW060CB
03:00
M
18 °C 10 km+ 1.600 ft 270° 270° 10 kt METAR LFBO 200100Z AUTO 27010KT 9999 OVC016/// //////TCU 18/18 Q1016 TEMPO 3000 SHRA BKN008 OVC040 FEW060CB
02:30
M
18 °C 10 km+ 1.400 ft 250° 250° 9 kt METAR LFBO 200030Z AUTO 25009KT 9999 FEW009/// BKN014/// BKN030/// ///CB 18/18 Q1016 TEMPO 3000 SHRA BKN008 OVC040 FEW060CB
02:00
M
18 °C 10 km+ 2.500 ft 270° 270° 8 kt METAR LFBO 200000Z AUTO 27008KT 9999 SCT018/// BKN025/// OVC066/// ///CB 18/18 Q1016 TEMPO 2000 TSRA BECMG BKN011
01:30
V
18 °C 10 km+ 6.400 ft 290° 290° 8 kt METAR LFBO 192330Z AUTO 29008KT 9999 -RA FEW009/// SCT024/// OVC064/// //////CB 18/18 Q1016 TEMPO 2000 TSRA BECMG BKN011
01:00
M
18 °C 10 km+ 1.600 ft 260° 260° 8 kt METAR LFBO 192300Z AUTO 26008KT 220V280 9999 -RA SCT009/// BKN016/// BKN031/// ///CB 18/18 Q1016 TEMPO 2000 TSRA BECMG BKN011
00:30
I
18 °C 3,7 km 1.100 ft 270° 270° 12 kt METAR LFBO 192230Z AUTO 27012KT 230V300 3700 RA BR VCTS FEW006/// BKN011/// BKN022/// //////CB 18/18 Q1016 TEMPO 2000 TSRA
00:00
L
20 °C 1,1 km 2.800 ft 200° 200° 5 kt METAR LFBO 192200Z AUTO 20005KT 170V240 9999 1100 R14R/P2000 R32L/1700D R14L/0900D R32R/P2000 TSRA FEW015/// BKN028/// OVC035/// //////CB 20/18 Q1015 TEMPO 2000 TSRA BECMG BKN011

19 czerwca 2024

Czas Kod Pogoda Temp. Widoczność Sufit Wiatr METAR/SPECI
23:30
V
20 °C 10 km+ 3.400 ft 230° 230° 5 kt METAR LFBO 192130Z AUTO 23005KT 200V270 9999 VCTS OVC034/// ///CB 20/17 Q1015 TEMPO 2000 TSRA BECMG BKN011
23:00
V
21 °C 10 km+ 3.500 ft 250° 250° 6 kt METAR LFBO 192100Z AUTO 25006KT 220V280 9999 FEW030 BKN035 OVC042 21/17 Q1015 TEMPO 2000 TSRA SCT050CB
22:30
V
21 °C 10 km+ 4.600 ft 270° 270° 9 kt METAR LFBO 192030Z AUTO 27009KT 9999 SCT040/// BKN046/// BKN054/// ///TCU 21/17 Q1015 TEMPO 2000 TSRA SCT050CB
22:00
V
21 °C 10 km+ 4.200 ft 270° 270° 9 kt METAR LFBO 192000Z AUTO 27009KT 9999 FEW025/// OVC042/// //////CB 21/17 Q1014 TEMPO 2000 TSRA
21:30
M
21 °C 10 km+ 2.400 ft 260° 260° 8 kt METAR LFBO 191930Z AUTO 26008KT 9999 BKN024/// BKN040/// OVC050/// ///TCU 21/17 Q1015 TEMPO 2000 TSRA SCT050CB
21:00
V
22 °C 10 km+ 3.600 ft 280° 280° 7 kt METAR LFBO 191900Z AUTO 28007KT 9999 FEW023/// BKN036/// OVC046/// //////TCU 22/18 Q1014 TEMPO 2000 TSRA SCT050CB
20:30
V
22 °C 10 km+ 3.300 ft 280° 280° 9 kt METAR LFBO 191830Z AUTO 28009KT 9999 BKN033/// BKN039/// OVC045/// //////TCU 22/18 Q1014 TEMPO 2000 TSRA SCT050CB
20:00
V
22 °C 10 km+ 3.200 ft 290° 290° 8 kt METAR LFBO 191800Z AUTO 29008KT 9999 FEW021 BKN032 BKN041 22/18 Q1014 TEMPO 2000 TSRA SCT050CB
19:30
V
23 °C 10 km+ 3.900 ft 290° 290° 9 kt METAR LFBO 191730Z AUTO 29009KT 9999 FEW028 BKN039 BKN054 23/18 Q1013 TEMPO 2000 TSRA SCT050CB
19:00
V
23 °C 10 km+ 3.600 ft 290° 290° 11 kt METAR LFBO 191700Z AUTO 29011KT 9999 SCT027 BKN036 BKN064 23/18 Q1014 TEMPO SCT030TCU
18:30
V
23 °C 10 km+ 3.400 ft 280° 280° 8 kt METAR LFBO 191630Z AUTO 28008KT 9999 SCT028 BKN034 BKN040 23/18 Q1013 TEMPO SCT030TCU
18:00
V
23 °C 10 km+ 3.400 ft 290° 290° 7 kt METAR LFBO 191600Z AUTO 29007KT 9999 FEW029 BKN034 BKN041 23/18 Q1014 TEMPO SCT030TCU
17:30
V
24 °C 10 km+ 3.100 ft 290° 290° 7 kt METAR LFBO 191530Z AUTO 29007KT 260V320 9999 FEW026 BKN031 BKN037 24/18 Q1014 TEMPO SCT030TCU
17:00
M
24 °C 10 km+ 3.000 ft 300° 300° 5 kt METAR LFBO 191500Z AUTO 30005KT 250V360 9999 SCT025 BKN030 BKN048 24/17 Q1014 TEMPO SCT030TCU
16:30
V
24 °C 10 km+ 7.400 ft 310° 310° 6 kt METAR LFBO 191430Z AUTO 31006KT 270V340 9999 FEW022 SCT054 BKN074 24/18 Q1014 TEMPO SCT030TCU
16:00
V
23 °C 10 km+ 3.100 ft 280° 280° 8 kt METAR LFBO 191400Z AUTO 28008KT 250V320 9999 SCT025 BKN031 OVC068 23/18 Q1014 TEMPO SCT030TCU
15:30
M
23 °C 10 km+ 2.400 ft 280° 280° 8 kt METAR LFBO 191330Z AUTO 28008KT 250V340 9999 BKN024 OVC062 23/18 Q1014 TEMPO SCT030TCU
15:00
M
23 °C 10 km+ 2.300 ft 280° 280° 8 kt METAR LFBO 191300Z AUTO 28008KT 9999 BKN023 BKN030 OVC062 23/18 Q1014 TEMPO SCT030TCU
14:30
M
22 °C 10 km+ 2.100 ft 280° 280° 7 kt METAR LFBO 191230Z AUTO 28007KT 240V310 9999 BKN021 BKN028 OVC041 22/18 Q1014 TEMPO SCT030TCU
14:00
V
23 °C 10 km+ 4.100 ft 270° 270° 9 kt METAR LFBO 191200Z AUTO 27009KT 240V300 9999 SCT018 BKN041 OVC058 23/18 Q1014 NOSIG
13:30
V
22 °C 10 km+ 5.800 ft 270° 270° 10 kt METAR LFBO 191130Z AUTO 27010KT 9999 FEW015 SCT020 OVC058 22/18 Q1014 NOSIG
13:00
M
22 °C 10 km+ 1.600 ft 270° 270° 8 kt METAR LFBO 191100Z AUTO 27008KT 9999 BKN016 BKN021 BKN031 22/18 Q1014 NOSIG
12:30
M
22 °C 10 km+ 1.700 ft 270° 270° 4 kt METAR LFBO 191030Z AUTO 27004KT 220V310 9999 BKN017 BKN023 OVC034 22/19 Q1014 NOSIG
12:00
M
21 °C 10 km+ 2.600 ft 280° 280° 4 kt METAR LFBO 191000Z AUTO 28004KT 250V320 9999 FEW016 BKN026 BKN032 21/19 Q1014 NOSIG
11:30
M
21 °C 10 km+ 2.300 ft 280° 280° 4 kt METAR LFBO 190930Z AUTO 28004KT 9999 FEW015 BKN023 OVC030 21/18 Q1013 NOSIG
11:00
M
22 °C 10 km+ 2.800 ft 220° 220° 3 kt METAR LFBO 190900Z AUTO 22003KT 170V250 9999 SCT019 BKN028 OVC036 22/17 Q1013 NOSIG
10:30
M
21 °C 10 km+ 1.700 ft 190° 190° 4 kt METAR LFBO 190830Z AUTO 19004KT 160V220 9999 BKN017 BKN028 BKN033 21/18 Q1013 NOSIG
10:00
M
21 °C 10 km+ 1.900 ft 180° 180° 3 kt METAR LFBO 190800Z AUTO 18003KT 120V210 9999 BKN019 OVC024 21/18 Q1013 NOSIG
09:30
M
21 °C 10 km+ 1.600 ft Var Var 2 kt METAR LFBO 190730Z AUTO VRB02KT 9999 BKN016 BKN023 OVC052 21/17 Q1013 NOSIG
09:00
V
21 °C 10 km+ 3.400 ft Var Var 2 kt METAR LFBO 190700Z AUTO VRB02KT 9999 FEW014 SCT024 BKN034 21/17 Q1013 NOSIG
08:30
V
20 °C 10 km+ 3.100 ft 280° 280° 5 kt METAR LFBO 190630Z AUTO 28005KT 240V300 9999 FEW024 BKN031 BKN048 20/17 Q1012 NOSIG
08:00
I
20 °C 4,4 km 2.800 ft 230° 230° 4 kt METAR LFBO 190600Z AUTO 23004KT 200V260 9999 4400 OVC028 20/17 Q1012 NOSIG
07:30
M
20 °C 10 km+ 2.700 ft 200° 200° 4 kt METAR LFBO 190530Z AUTO 20004KT 9999 BKN027 OVC040 20/17 Q1012 NOSIG
07:00
M
20 °C 10 km+ 2.800 ft 140° 140° 3 kt METAR LFBO 190500Z AUTO 14003KT 9999 BKN028 OVC039 20/17 Q1012 TEMPO BKN007
06:30
V
20 °C 10 km+ 3.200 ft 160° 160° 4 kt METAR LFBO 190430Z AUTO 16004KT 9999 SCT026 BKN032 OVC039 20/17 Q1012 TEMPO BKN007
06:00
M
20 °C 10 km+ 2.700 ft 120° 120° 3 kt METAR LFBO 190400Z AUTO 12003KT 9999 FEW020 BKN027 OVC033 20/17 Q1011 TEMPO BKN007
05:30
M
20 °C 10 km+ 2.200 ft Var Var 1 kt METAR LFBO 190330Z AUTO VRB01KT 9999 BKN022 OVC032 20/17 Q1011 TEMPO BKN007
05:00
M
20 °C 10 km+ 2.300 ft Var Var 3 kt METAR LFBO 190300Z AUTO VRB03KT 9999 SCT015 BKN023 OVC031 20/17 Q1011 TEMPO BKN007
04:30
M
19 °C 10 km+ 1.400 ft 300° 300° 4 kt METAR LFBO 190230Z AUTO 30004KT 9999 BKN014 BKN027 19/17 Q1011 TEMPO BKN007
04:00
M
19 °C 10 km+ 2.700 ft Var Var 1 kt METAR LFBO 190200Z AUTO VRB01KT 9999 BKN027 19/17 Q1011 TEMPO BKN007
03:30
V
19 °C 10 km+ - Var Var 3 kt METAR LFBO 190130Z AUTO VRB03KT 9999 SCT026 19/17 Q1011 TEMPO BKN007
03:00
V
19 °C 10 km+ - 160° 160° 5 kt METAR LFBO 190100Z AUTO 16005KT 9999 FEW025 19/17 Q1011 TEMPO BKN007
02:30
V
20 °C 10 km+ - 140° 140° 6 kt METAR LFBO 190030Z AUTO 14006KT CAVOK 20/17 Q1011 TEMPO BKN007
02:00
V
20 °C 10 km+ - 150° 150° 6 kt METAR LFBO 190000Z AUTO 15006KT 9999 FEW014 20/16 Q1011 NOSIG
01:30
V
20 °C 10 km+ 23.000 ft 150° 150° 5 kt METAR LFBO 182330Z AUTO 15005KT 9999 FEW013 SCT140 BKN230 20/16 Q1011 NOSIG
01:00
V
21 °C 10 km+ - Var Var 3 kt METAR LFBO 182300Z AUTO VRB03KT CAVOK 21/18 Q1011 NOSIG
00:30
V
21 °C 10 km+ - 330° 330° 4 kt METAR LFBO 182230Z AUTO 33004KT CAVOK 21/18 Q1012 NOSIG
00:00
V
21 °C 10 km+ - 300° 300° 4 kt METAR LFBO 182200Z AUTO 30004KT CAVOK 21/17 Q1012 NOSIG

18 czerwca 2024

Czas Kod Pogoda Temp. Widoczność Sufit Wiatr METAR/SPECI
23:30
V
21 °C 10 km+ - 310° 310° 5 kt METAR LFBO 182130Z AUTO 31005KT 290V020 CAVOK 21/17 Q1011 NOSIG
23:00
V
23 °C 10 km+ - 360° 360° 8 kt METAR LFBO 182100Z AUTO 36008KT 330V040 CAVOK 23/16 Q1011 NOSIG
22:30
V
25 °C 10 km+ 6.400 ft 110° 110° 8 kt METAR LFBO 182030Z AUTO 11008KT 9999 FEW012 OVC064 25/14 Q1010 NOSIG
22:00
V
25 °C 10 km+ - 150° 150° 4 kt METAR LFBO 182000Z AUTO 15004KT 9999 ///CB 25/14 Q1010 BECMG NSC
21:30
V
25 °C 10 km+ - 170° 170° 8 kt METAR LFBO 181930Z AUTO 17008KT 130V200 9999 ///CB 25/14 Q1010 BECMG NSC
21:00
V
26 °C 10 km+ - 140° 140° 14 kt METAR LFBO 181900Z AUTO 14014KT 9999 ///CB 26/14 Q1009 BECMG 30005KT NSC
20:30
V
27 °C 10 km+ - 130° 130° 15 kt METAR LFBO 181830Z AUTO 13015KT CAVOK 27/13 Q1008 BECMG 30005KT
20:00
V
28 °C 10 km+ - 140° 140° 15 kt METAR LFBO 181800Z AUTO 14015KT 9999 FEW011 28/14 Q1008 TEMPO FEW060CB SCT120 BECMG 30005KT
19:30
V
28 °C 10 km+ - 130° 130° 16 kt METAR LFBO 181730Z AUTO 13016KT CAVOK 28/14 Q1008 BECMG 28008KT
19:00
V
29 °C 10 km+ - 130° 130° 15 kt METAR LFBO 181700Z AUTO 13015KT CAVOK 29/14 Q1009 TEMPO 14018G28KT
18:30
V
29 °C 9 km - 140° 140° 16 kt METAR LFBO 181630Z AUTO 14016KT 100V160 9000 FEW009 29/14 Q1009 TEMPO 14018G28KT
18:00
V
29 °C 9 km - 140° 140° 16 kt METAR LFBO 181600Z AUTO 14016KT 9000 NSC 29/14 Q1009 TEMPO 14018G28KT
17:30
V
29 °C 9 km - 140° 140° 16 kt METAR LFBO 181530Z AUTO 14016KT 110V170 9000 FEW009 29/14 Q1010 TEMPO 14018G28KT
17:00
V
30 °C 9 km - 130° 130° 15 kt METAR LFBO 181500Z AUTO 13015KT 100V160 9000 NSC 30/15 Q1010 TEMPO 14018G28KT
16:30
V
29 °C 9 km - 130° 130° 14 kt METAR LFBO 181430Z AUTO 13014KT 090V150 9000 FEW008 29/15 Q1010 TEMPO 14018G28KT
16:00
V
29 °C 10 km+ - 130° 130° 16 kt METAR LFBO 181400Z AUTO 13016KT 100V160 CAVOK 29/15 Q1010 TEMPO 14018G28KT
15:30
V
29 °C 10 km+ - 130° 130° 16 kt METAR LFBO 181330Z AUTO 13016KT 100V160 9999 FEW009 29/16 Q1011 TEMPO 14018G28KT
15:00
V
28 °C 10 km+ - 110° 110° 14 kt METAR LFBO 181300Z AUTO 11014KT 9999 FEW009 28/15 Q1011 TEMPO 14018G28KT
14:30
V
27 °C 10 km+ - 140° 140° 19 kt METAR LFBO 181230Z AUTO 14019KT CAVOK 27/15 Q1011 TEMPO 14018G28KT
14:00
I
27 °C 4 km - 130° 130° 17 kt METAR LFBO 181200Z AUTO 13017KT 9999 4000 NSC 27/16 Q1011 TEMPO 14018G28KT
13:30
I
26 °C 2,6 km - 130° 130° 15 kt METAR LFBO 181130Z AUTO 13015KT 9999 2600 FEW033 26/17 Q1012 TEMPO 14016G26KT
13:00
I
25 °C 3 km - 120° 120° 15 kt METAR LFBO 181100Z AUTO 12015KT 090V160 9999 3000 FEW031 25/16 Q1012 TEMPO 14016G26KT
12:30
I
23 °C 3,6 km - 140° 140° 14 kt METAR LFBO 181030Z AUTO 14014KT 9999 3600 FEW026 SCT230 23/16 Q1012 TEMPO 14016G26KT
12:00
I
22 °C 4,5 km - 120° 120° 15 kt METAR LFBO 181000Z AUTO 12015KT 9999 4500 FEW009 SCT230 22/16 Q1013 NOSIG
11:30
V
22 °C 10 km+ 24.000 ft 130° 130° 14 kt METAR LFBO 180930Z AUTO 13014KT 9999 FEW011 SCT023 BKN240 22/16 Q1013 NOSIG
11:00
V
21 °C 10 km+ 23.000 ft 150° 150° 13 kt METAR LFBO 180900Z AUTO 15013KT 9999 SCT022 BKN230 21/16 Q1013 NOSIG
10:30
M
21 °C 10 km+ 2.100 ft 140° 140° 17 kt METAR LFBO 180830Z AUTO 14017KT 9999 BKN021 BKN140 BKN230 21/15 Q1013 NOSIG
10:00
V
21 °C 10 km+ 23.000 ft 150° 150° 13 kt METAR LFBO 180800Z AUTO 15013KT 9999 FEW021 SCT140 BKN230 21/16 Q1013 NOSIG
09:30
V
20 °C 10 km+ 14.000 ft 140° 140° 12 kt METAR LFBO 180730Z AUTO 14012KT 9999 SCT021 BKN140 BKN230 20/16 Q1013 BECMG 20007KT
09:00
V
20 °C 10 km+ 24.000 ft 150° 150° 13 kt METAR LFBO 180700Z AUTO 15013KT 9999 FEW020 SCT140 BKN240 20/15 Q1013 NOSIG
08:30
V
19 °C 10 km+ 24.000 ft 160° 160° 12 kt METAR LFBO 180630Z AUTO 16012KT 9999 FEW007 SCT020 BKN240 19/16 Q1013 NOSIG
08:00
M
19 °C 10 km+ 1.900 ft 170° 170° 10 kt METAR LFBO 180600Z AUTO 17010KT 9999 FEW009 BKN019 19/16 Q1012 TEMPO BKN012
Zgłoś zmianę